createdAt,value
2023-04-09T16:04:51.587Z,50.64
2023-04-09T16:07:19.644Z,49.84
2023-04-09T16:09:47.551Z,49.60
2023-04-09T16:12:15.329Z,49.93
2023-04-09T16:14:43.177Z,49.98
2023-04-09T16:17:11.259Z,50.24
2023-04-09T16:19:39.175Z,49.55
2023-04-09T16:22:08.469Z,50.28
2023-04-09T16:24:36.326Z,50.14
2023-04-09T16:27:04.361Z,48.90
2023-04-09T16:29:32.251Z,48.01
2023-04-09T16:32:00.351Z,47.51
2023-04-09T16:34:28.262Z,47.29
2023-04-09T16:36:56.264Z,49.05
2023-04-09T16:39:27.863Z,49.09
2023-04-09T16:41:55.797Z,49.20
2023-04-09T16:44:23.656Z,50.64
2023-04-09T16:46:51.863Z,50.59
2023-04-09T16:49:19.846Z,50.15
2023-04-09T16:51:47.690Z,50.80
2023-04-09T16:54:15.717Z,50.85
2023-04-09T16:56:44.933Z,52.45
2023-04-09T16:59:13.461Z,54.15
2023-04-09T17:01:41.452Z,54.41
2023-04-09T17:04:09.499Z,55.76
2023-04-09T17:06:37.406Z,57.37
2023-04-09T17:09:06.420Z,56.72
2023-04-09T17:11:34.511Z,56.62
2023-04-09T17:14:03.786Z,56.92
2023-04-09T17:16:31.720Z,58.41
2023-04-09T17:18:59.591Z,58.74
2023-04-09T17:21:27.756Z,59.07
2023-04-09T17:23:55.916Z,60.22
2023-04-09T17:26:24.679Z,60.58
2023-04-09T17:28:52.870Z,60.91
2023-04-09T17:31:24.199Z,61.57
2023-04-09T17:33:52.750Z,61.46
2023-04-09T17:36:20.624Z,62.38
2023-04-09T17:38:49.865Z,62.85
2023-04-09T17:41:17.950Z,63.17
2023-04-09T17:43:46.092Z,63.37
2023-04-09T17:46:14.402Z,63.61
2023-04-09T17:48:43.680Z,63.67
2023-04-09T17:51:16.340Z,64.94
2023-04-09T17:53:44.485Z,65.18
2023-04-09T17:56:16.676Z,65.29
2023-04-09T17:58:44.975Z,65.76
2023-04-09T18:01:13.647Z,65.99
2023-04-09T18:03:45.556Z,66.39
2023-04-09T18:06:15.245Z,67.01
2023-04-09T18:08:43.355Z,67.29
2023-04-09T18:11:12.754Z,67.06
2023-04-09T18:13:41.933Z,67.43
2023-04-09T18:16:10.476Z,67.99
2023-04-09T18:18:38.495Z,68.55
2023-04-09T18:21:08.004Z,68.31
2023-04-09T18:23:35.886Z,68.70
2023-04-09T18:26:03.710Z,68.74
2023-04-09T18:28:31.632Z,68.97
2023-04-09T18:30:59.783Z,69.67
2023-04-09T18:33:27.748Z,69.82
2023-04-09T18:35:55.878Z,70.00
2023-04-09T18:38:25.313Z,70.41
2023-04-09T18:40:53.235Z,70.51
2023-04-09T18:43:21.145Z,70.40
2023-04-09T18:45:50.461Z,70.68
2023-04-09T18:48:19.034Z,71.02
2023-04-09T18:50:47.144Z,71.30
2023-04-09T18:53:15.241Z,71.26
2023-04-09T18:55:44.616Z,71.41
2023-04-09T18:58:14.884Z,71.72
2023-04-09T19:00:43.475Z,71.45
2023-04-09T19:03:12.136Z,71.43
2023-04-09T19:05:40.313Z,72.02
2023-04-09T19:08:08.116Z,72.27
2023-04-09T19:10:36.139Z,72.52
2023-04-09T19:13:05.450Z,72.94
2023-04-09T19:15:33.277Z,73.11
2023-04-09T19:18:01.277Z,73.45
2023-04-09T19:20:29.252Z,73.63
2023-04-09T19:22:58.201Z,73.66
2023-04-09T19:25:26.099Z,73.68
2023-04-09T19:27:54.463Z,73.80
2023-04-09T19:30:23.960Z,73.95
2023-04-09T19:32:52.036Z,73.86
2023-04-09T19:35:19.993Z,73.93
2023-04-09T19:37:48.580Z,73.81
2023-04-09T19:40:17.848Z,74.45
2023-04-09T19:42:45.769Z,74.78
2023-04-09T19:45:13.929Z,74.55
2023-04-09T19:47:43.365Z,74.48
2023-04-09T19:50:11.974Z,74.74
2023-04-09T19:52:41.342Z,74.90
2023-04-09T19:55:10.573Z,75.30
2023-04-09T19:57:38.873Z,75.42
2023-04-09T20:00:08.582Z,75.98
2023-04-09T20:02:39.853Z,75.96
2023-04-09T20:05:10.537Z,75.65
2023-04-09T20:07:38.524Z,76.04
2023-04-09T20:10:07.462Z,76.20
2023-04-09T20:12:35.491Z,76.54
2023-04-09T20:15:03.613Z,76.12
2023-04-09T20:17:31.937Z,76.81
2023-04-09T20:19:59.856Z,76.74
2023-04-09T20:22:29.478Z,77.05
2023-04-09T20:24:57.937Z,77.73
2023-04-09T20:27:25.908Z,77.62
2023-04-09T20:29:54.086Z,77.72
2023-04-09T20:32:22.581Z,78.14
2023-04-09T20:34:50.584Z,78.63
2023-04-09T20:37:18.565Z,78.31
2023-04-09T20:39:47.903Z,78.29
2023-04-09T20:42:16.023Z,78.41
2023-04-09T20:44:44.733Z,79.03
2023-04-09T20:47:13.070Z,78.72
2023-04-09T20:49:42.371Z,79.26
2023-04-09T20:52:10.334Z,79.52
2023-04-09T20:54:39.154Z,79.47
2023-04-09T20:57:10.993Z,79.61
2023-04-09T20:59:42.306Z,79.55
2023-04-09T21:02:10.240Z,79.64
2023-04-09T21:04:38.324Z,79.85
2023-04-09T21:07:06.597Z,80.09
2023-04-09T21:09:34.579Z,80.23
2023-04-09T21:12:02.827Z,80.28
2023-04-09T21:14:32.288Z,80.38
2023-04-09T21:17:00.181Z,80.14
2023-04-09T21:19:28.138Z,80.22
2023-04-09T21:21:56.084Z,80.26
2023-04-09T21:24:24.573Z,80.20
2023-04-09T21:26:52.703Z,80.60
2023-04-09T21:29:20.967Z,80.73
2023-04-09T21:31:50.636Z,80.47
2023-04-09T21:34:18.528Z,80.82
2023-04-09T21:36:46.513Z,80.93
2023-04-09T21:39:14.373Z,81.24
2023-04-09T21:41:42.216Z,80.95
2023-04-09T21:44:10.146Z,81.58
2023-04-09T21:46:40.553Z,81.14
2023-04-09T21:49:10.130Z,81.13
2023-04-09T21:51:39.217Z,81.18
2023-04-09T21:54:10.741Z,80.99
2023-04-09T21:56:39.300Z,81.21
2023-04-09T21:59:07.198Z,81.05
2023-04-09T22:01:35.480Z,81.56
2023-04-09T22:04:03.826Z,81.32
2023-04-09T22:06:33.326Z,81.27
2023-04-09T22:09:01.778Z,81.05
2023-04-09T22:11:29.998Z,81.44
2023-04-09T22:13:58.414Z,81.55
2023-04-09T22:16:26.632Z,81.48
2023-04-09T22:18:55.000Z,81.48
2023-04-09T22:21:23.429Z,82.10
2023-04-09T22:23:52.712Z,81.60
2023-04-09T22:26:21.544Z,81.88
2023-04-09T22:28:50.178Z,82.00
2023-04-09T22:31:18.133Z,81.68
2023-04-09T22:33:46.098Z,81.73
2023-04-09T22:36:13.996Z,81.39
2023-04-09T22:38:41.977Z,81.50
2023-04-09T22:41:11.242Z,82.02
2023-04-09T22:43:39.120Z,81.83
2023-04-09T22:46:07.198Z,81.76
2023-04-09T22:48:38.261Z,82.10
2023-04-09T22:51:12.731Z,82.03
2023-04-09T22:53:41.015Z,82.10
2023-04-09T22:56:09.539Z,81.96
2023-04-09T22:58:39.215Z,82.41
2023-04-09T23:01:07.610Z,82.88
2023-04-09T23:03:35.594Z,82.78
2023-04-09T23:06:03.880Z,82.74
2023-04-09T23:08:31.715Z,83.05
2023-04-09T23:10:59.785Z,82.96
2023-04-09T23:13:27.619Z,83.08
2023-04-09T23:15:56.872Z,83.38
2023-04-09T23:18:24.789Z,83.42
2023-04-09T23:20:52.762Z,83.63
2023-04-09T23:23:20.564Z,83.61
2023-04-09T23:25:48.408Z,83.13
2023-04-09T23:28:18.495Z,83.42
2023-04-09T23:30:46.398Z,83.47
2023-04-09T23:33:15.744Z,83.14
2023-04-09T23:35:43.689Z,83.08
2023-04-09T23:38:11.669Z,83.26
2023-04-09T23:40:39.843Z,83.49
2023-04-09T23:43:07.701Z,83.48
2023-04-09T23:45:35.633Z,83.73
2023-04-09T23:48:04.344Z,83.64
2023-04-09T23:50:33.733Z,83.74
2023-04-09T23:53:03.706Z,83.47
2023-04-09T23:55:33.319Z,83.64
2023-04-09T23:58:01.528Z,83.43
